Infantes, Spain
Current Conditions -  °F | °C
As of 4:00 PM on Sunday 21 Dec 2014 (Local Time) from LEAO Reporting Station
Clear Clear  
Wind Chill: 52°   Ceiling: Unl
Heat Index: 52°   Visibility: 6mi
Dew Point: 45°   Wind: 6mph
Humidity: 76%   Direction: 90°E
Pressure: 30.42"   Gusts: NA
Location:  38.74°N, 3.01°W
Report Text: LEAO 211500Z 09005KT 050V130 CAVOK 11/07 Q1030
Loading
Personal Weather Stations






























Interactive Weather Map New forecast layout! Learn more

10-Day Weather Forecast

Advertisements
Track Severe Weather on mobile